This is the latest recevied weather packets stored in our database for station/object OK2ILA-6. If no packets are shown the sender has not sent any weather packets the latest 10 day(s).
| Time | Temp. | Humidity | Pressure | Rain* | Wind** | Luminosity | Snow |
|---|---|---|---|---|---|---|---|
| 1777755003 | 11.11° C | 68% | 1019.4 hPa | - | - | - | - |
| 1777754403 | 11.67° C | 68% | 1019.4 hPa | - | - | - | - |
| 1777753802 | 12.22° C | 67% | 1019.4 hPa | - | - | - | - |
| 1777753202 | 12.22° C | 66% | 1019.4 hPa | - | - | - | - |
| 1777752603 | 12.22° C | 66% | 1019.4 hPa | - | - | - | - |
| 1777752003 | 12.78° C | 66% | 1019.5 hPa | - | - | - | - |
| 1777750802 | 13.33° C | 65% | 1019.6 hPa | - | - | - | - |
| 1777750202 | 13.33° C | 64% | 1019.5 hPa | - | - | - | - |
| 1777749603 | 13.89° C | 64% | 1019.6 hPa | - | - | - | - |
| 1777749003 | 14.44° C | 66% | 1019.4 hPa | - | - | - | - |
| 1777748403 | 14.44° C | 64% | 1019.4 hPa | - | - | - | - |
| 1777747802 | 14.44° C | 64% | 1019.2 hPa | - | - | - | - |
| 1777747202 | 14.44° C | 66% | 1019.4 hPa | - | - | - | - |
| 1777746603 | 15.56° C | 62% | 1019.2 hPa | - | - | - | - |
| 1777746003 | 16.67° C | 58% | 1019.1 hPa | - | - | - | - |
| 1777745402 | 17.78° C | 51% | 1019.1 hPa | - | - | - | - |
| 1777744802 | 18.89° C | 42% | 1019 hPa | - | - | - | - |
| 1777744202 | 20° C | 40% | 1019 hPa | - | - | - | - |
| 1777743603 | 20.56° C | 38% | 1019.2 hPa | - | - | - | - |
| 1777743003 | 21.11° C | 36% | 1019 hPa | - | - | - | - |
| 1777742403 | 21.11° C | 35% | 1019 hPa | - | - | - | - |
| 1777741802 | 21.67° C | 34% | 1019.2 hPa | - | - | - | - |
| 1777741202 | 22.22° C | 34% | 1019.2 hPa | - | - | - | - |
| 1777740603 | 22.22° C | 34% | 1019.3 hPa | - | - | - | - |
| 1777740003 | 22.22° C | 32% | 1019.4 hPa | - | - | - | - |
* Rain since midnight (hover to see other rain measurements)
** Current wind speed in m/s (hover to see current wind gust speed)